Time;durP1;ratioP1;P1;durP2;ratioP2;P2;SDS_P1;SDS_P2;PMS_P1;PMS_P2;Temp;Humidity;BMP_temperature;BMP_pressure;BME280_temperature;BME280_humidity;BME280_pressure;Samples;Min_cycle;Max_cycle;Signal;HPM_P1;HPM_P2
2021/12/31 00:00:37;;;;;;;2.97;0.80;;;;;;;;;;5072495;28;20238;-83
2021/12/31 00:03:05;;;;;;;2.00;1.00;;;;;;;;;;5071759;28;20481;-83
2021/12/31 00:05:32;;;;;;;2.43;0.77;;;;;;;;;;5069175;28;20271;-83
2021/12/31 00:07:59;;;;;;;2.07;0.90;;;;;;;;;;5102032;22;20332;-83
2021/12/31 00:10:26;;;;;;;1.97;0.73;;;;;;;;;;5073932;28;20302;-83
2021/12/31 00:12:56;;;;;;;2.20;0.70;;;;;;;;;;5071626;28;20601;-82
2021/12/31 00:15:23;;;;;;;2.33;0.70;;;;;;;;;;5075504;28;20253;-82
2021/12/31 00:17:52;;;;;;;2.37;0.60;;;;;;;;;;5069403;28;20290;-82
2021/12/31 00:20:23;;;;;;;1.53;0.67;;;;;;;;;;5068941;28;20201;-83
2021/12/31 00:23:02;;;;;;;2.20;0.90;;;;;;;;;;5068809;28;20228;-82
2021/12/31 00:25:29;;;;;;;2.47;0.80;;;;;;;;;;5070561;28;20555;-82
2021/12/31 00:27:57;;;;;;;3.93;1.00;;;;;;;;;;5069576;28;20638;-82
2021/12/31 00:30:24;;;;;;;1.40;0.93;;;;;;;;;;5068896;28;20307;-82
2021/12/31 00:32:52;;;;;;;3.73;0.87;;;;;;;;;;5065051;28;20228;-82
2021/12/31 00:35:20;;;;;;;1.47;0.70;;;;;;;;;;5068134;28;20677;-83
2021/12/31 00:37:47;;;;;;;4.00;0.90;;;;;;;;;;5066913;28;20223;-84
2021/12/31 00:40:15;;;;;;;1.30;0.90;;;;;;;;;;5067593;28;20198;-83
2021/12/31 00:42:43;;;;;;;2.20;0.80;;;;;;;;;;5066523;28;20202;-82
2021/12/31 00:45:11;;;;;;;4.50;0.70;;;;;;;;;;5065144;28;20318;-83
2021/12/31 00:47:39;;;;;;;4.97;0.73;;;;;;;;;;5070002;28;20255;-82
2021/12/31 00:50:08;;;;;;;3.93;1.10;;;;;;;;;;5069504;28;20221;-83
2021/12/31 00:52:35;;;;;;;1.43;1.00;;;;;;;;;;5072634;28;20210;-83
2021/12/31 00:55:02;;;;;;;1.93;0.80;;;;;;;;;;5072056;28;20207;-83
2021/12/31 00:57:29;;;;;;;2.20;0.90;;;;;;;;;;5067363;28;20308;-83
2021/12/31 00:59:57;;;;;;;2.27;0.73;;;;;;;;;;5068985;28;20207;-82
2021/12/31 01:02:27;;;;;;;3.67;0.87;;;;;;;;;;5064694;28;20199;-83
2021/12/31 01:04:54;;;;;;;2.00;0.87;;;;;;;;;;5069128;28;20210;-82
2021/12/31 01:07:23;;;;;;;2.43;0.80;;;;;;;;;;5065877;28;20207;-83
2021/12/31 01:09:50;;;;;;;2.53;0.87;;;;;;;;;;5068365;28;20333;-83
2021/12/31 01:12:17;;;;;;;5.23;0.70;;;;;;;;;;5067414;28;20310;-83
2021/12/31 01:14:54;;;;;;;2.50;0.80;;;;;;;;;;5066606;28;20207;-83
2021/12/31 01:17:37;;;;;;;4.07;1.30;;;;;;;;;;5070195;28;20796;-83
2021/12/31 01:20:05;;;;;;;6.00;1.00;;;;;;;;;;5069491;28;20212;-83
2021/12/31 01:22:34;;;;;;;8.13;1.20;;;;;;;;;;5065294;28;20203;-82
2021/12/31 01:25:02;;;;;;;3.10;0.87;;;;;;;;;;5068029;28;20297;-83
2021/12/31 01:27:29;;;;;;;3.07;0.90;;;;;;;;;;5066413;28;20566;-82
2021/12/31 01:29:57;;;;;;;5.77;0.87;;;;;;;;;;5069136;28;20211;-82
2021/12/31 01:32:24;;;;;;;5.27;1.03;;;;;;;;;;5072069;28;20289;-82
2021/12/31 01:34:51;;;;;;;2.17;1.17;;;;;;;;;;5068149;28;20274;-82
2021/12/31 01:37:19;;;;;;;4.13;1.00;;;;;;;;;;5065026;28;20313;-83
2021/12/31 01:39:47;;;;;;;5.17;1.20;;;;;;;;;;5063758;28;20226;-83
2021/12/31 01:42:17;;;;;;;6.33;1.10;;;;;;;;;;5064007;28;20213;-83
2021/12/31 01:44:54;;;;;;;1.73;0.93;;;;;;;;;;5062526;28;20210;-83
2021/12/31 01:47:23;;;;;;;6.67;0.93;;;;;;;;;;5062534;28;20302;-83
2021/12/31 01:49:56;;;;;;;5.30;1.10;;;;;;;;;;5068015;28;20573;-82
2021/12/31 01:52:24;;;;;;;3.20;1.17;;;;;;;;;;5065930;28;20218;-82
2021/12/31 01:54:52;;;;;;;3.70;1.30;;;;;;;;;;5063401;28;20723;-83
2021/12/31 01:57:20;;;;;;;4.10;1.27;;;;;;;;;;5063714;28;20223;-82
2021/12/31 01:59:47;;;;;;;5.67;1.00;;;;;;;;;;5065966;28;20202;-83
2021/12/31 02:02:15;;;;;;;6.47;1.60;;;;;;;;;;5066742;28;20207;-83
2021/12/31 02:04:43;;;;;;;4.43;1.50;;;;;;;;;;5060660;28;20217;-81
2021/12/31 02:07:10;;;;;;;2.60;1.20;;;;;;;;;;5066007;28;20703;-81
2021/12/31 02:09:45;;;;;;;5.53;1.50;;;;;;;;;;5063527;28;20240;-83
2021/12/31 02:12:13;;;;;;;3.93;1.20;;;;;;;;;;5066267;28;20620;-83
2021/12/31 02:14:40;;;;;;;3.90;1.10;;;;;;;;;;5064459;28;20199;-83
2021/12/31 02:17:09;;;;;;;2.73;1.10;;;;;;;;;;5063393;28;20229;-83
2021/12/31 02:19:37;;;;;;;5.57;1.27;;;;;;;;;;5064730;28;20222;-83
2021/12/31 02:22:06;;;;;;;6.57;1.47;;;;;;;;;;5064163;28;20221;-83
2021/12/31 02:24:35;;;;;;;3.43;1.50;;;;;;;;;;5066135;28;20321;-83
2021/12/31 02:27:02;;;;;;;2.57;1.40;;;;;;;;;;5066109;28;20206;-83
2021/12/31 02:29:30;;;;;;;5.20;1.73;;;;;;;;;;5065404;28;20291;-83
2021/12/31 02:31:57;;;;;;;5.00;1.40;;;;;;;;;;5065750;28;20279;-83
2021/12/31 02:34:24;;;;;;;6.33;1.47;;;;;;;;;;5060830;28;20355;-83
2021/12/31 02:36:51;;;;;;;4.50;1.43;;;;;;;;;;5065350;28;20722;-82
2021/12/31 02:39:20;;;;;;;4.37;1.27;;;;;;;;;;5061424;28;20313;-83
2021/12/31 02:41:47;;;;;;;7.13;1.80;;;;;;;;;;5064061;28;20650;-83
2021/12/31 02:44:14;;;;;;;7.00;1.60;;;;;;;;;;5067364;28;20293;-83
2021/12/31 02:46:41;;;;;;;8.13;1.87;;;;;;;;;;5062760;28;20218;-83
2021/12/31 02:49:08;;;;;;;4.87;1.40;;;;;;;;;;5067534;28;20236;-82
2021/12/31 02:51:36;;;;;;;7.67;1.73;;;;;;;;;;5066149;28;20266;-82
2021/12/31 02:54:07;;;;;;;8.40;1.80;;;;;;;;;;5064138;28;20587;-82
2021/12/31 02:56:35;;;;;;;8.20;1.60;;;;;;;;;;5062382;28;20214;-82
2021/12/31 02:59:03;;;;;;;4.13;1.60;;;;;;;;;;5068556;28;20236;-82
2021/12/31 03:01:30;;;;;;;12.47;5.13;;;;;;;;;;5065418;28;20262;-82
2021/12/31 03:03:58;;;;;;;4.53;1.77;;;;;;;;;;5069294;28;20209;-82
2021/12/31 03:06:25;;;;;;;9.77;2.70;;;;;;;;;;5068661;28;20202;-83
2021/12/31 03:08:53;;;;;;;13.67;4.20;;;;;;;;;;5068017;28;20234;-82
2021/12/31 03:11:21;;;;;;;10.43;5.10;;;;;;;;;;5076251;28;20216;-81
2021/12/31 03:13:52;;;;;;;10.77;4.20;;;;;;;;;;5076679;28;20213;-82
2021/12/31 03:16:20;;;;;;;7.27;2.80;;;;;;;;;;5081308;28;20546;-81
2021/12/31 03:18:47;;;;;;;6.37;2.17;;;;;;;;;;5079764;28;20681;-81
2021/12/31 03:21:21;;;;;;;6.27;2.40;;;;;;;;;;5082420;28;20259;-80
2021/12/31 03:23:49;;;;;;;10.90;6.43;;;;;;;;;;5083651;28;20203;-81
2021/12/31 03:26:16;;;;;;;11.10;5.43;;;;;;;;;;5080709;28;20202;-81
2021/12/31 03:28:43;;;;;;;6.73;2.77;;;;;;;;;;5082364;28;20286;-81
2021/12/31 03:31:11;;;;;;;6.87;3.67;;;;;;;;;;5086463;28;20226;-82
2021/12/31 03:33:39;;;;;;;7.20;3.40;;;;;;;;;;5080566;28;20210;-82
2021/12/31 03:36:06;;;;;;;10.30;4.13;;;;;;;;;;5086047;28;20273;-82
2021/12/31 03:38:33;;;;;;;9.50;4.13;;;;;;;;;;5080255;28;20282;-82
2021/12/31 03:41:00;;;;;;;7.27;2.50;;;;;;;;;;5087037;28;20308;-81
2021/12/31 03:43:27;;;;;;;4.90;3.00;;;;;;;;;;5086726;28;20187;-81
2021/12/31 03:45:54;;;;;;;10.10;3.90;;;;;;;;;;5082265;28;20207;-81
2021/12/31 03:48:23;;;;;;;9.00;3.50;;;;;;;;;;5082165;28;20255;-81
2021/12/31 03:50:51;;;;;;;5.50;2.97;;;;;;;;;;5083361;28;20214;-81
2021/12/31 03:53:18;;;;;;;9.63;3.43;;;;;;;;;;5080001;28;20532;-81
2021/12/31 03:55:45;;;;;;;7.90;2.80;;;;;;;;;;5077957;28;20219;-81
2021/12/31 03:58:13;;;;;;;13.20;3.00;;;;;;;;;;5081820;28;20539;-81
2021/12/31 04:00:40;;;;;;;7.40;2.97;;;;;;;;;;5081464;28;20206;-81
2021/12/31 04:03:07;;;;;;;8.53;3.40;;;;;;;;;;5085301;28;20270;-81
2021/12/31 04:05:36;;;;;;;10.83;3.17;;;;;;;;;;5088233;28;20198;-81
2021/12/31 04:08:04;;;;;;;6.73;2.73;;;;;;;;;;5081452;28;22095;-82
2021/12/31 04:10:31;;;;;;;8.90;3.17;;;;;;;;;;5067403;28;20282;-82
2021/12/31 04:12:58;;;;;;;11.87;3.60;;;;;;;;;;5069037;28;20729;-81
2021/12/31 04:15:25;;;;;;;13.07;3.90;;;;;;;;;;5068568;28;20644;-80
2021/12/31 04:17:53;;;;;;;11.03;3.60;;;;;;;;;;5071112;28;20241;-81
2021/12/31 04:20:31;;;;;;;11.67;3.37;;;;;;;;;;5067057;28;20199;-81
2021/12/31 04:23:01;;;;;;;8.47;3.10;;;;;;;;;;5068263;28;20207;-81
2021/12/31 04:25:28;;;;;;;7.80;3.30;;;;;;;;;;5070243;28;20773;-81
2021/12/31 04:27:55;;;;;;;13.93;3.90;;;;;;;;;;5070615;28;20210;-81
2021/12/31 04:30:23;;;;;;;11.77;3.73;;;;;;;;;;5067023;28;20530;-80
2021/12/31 04:32:50;;;;;;;9.23;2.93;;;;;;;;;;5068505;28;20267;-81
2021/12/31 04:35:18;;;;;;;9.13;3.20;;;;;;;;;;5066492;28;20210;-81
2021/12/31 04:37:46;;;;;;;9.53;3.33;;;;;;;;;;5066557;28;20237;-81
2021/12/31 04:40:15;;;;;;;7.73;2.70;;;;;;;;;;5070882;28;20209;-82
2021/12/31 04:42:42;;;;;;;7.13;2.60;;;;;;;;;;5066381;28;20214;-82
2021/12/31 04:45:10;;;;;;;5.87;2.50;;;;;;;;;;5068043;28;20352;-82
2021/12/31 04:47:37;;;;;;;6.03;2.80;;;;;;;;;;5068942;28;20206;-82
2021/12/31 04:50:05;;;;;;;7.83;2.77;;;;;;;;;;5065864;28;20734;-81
2021/12/31 04:52:32;;;;;;;10.50;2.87;;;;;;;;;;5068440;28;20234;-82
2021/12/31 04:54:59;;;;;;;6.90;3.13;;;;;;;;;;5066354;28;20220;-82
2021/12/31 04:57:28;;;;;;;7.93;2.50;;;;;;;;;;5066084;28;20771;-81
2021/12/31 04:59:55;;;;;;;9.23;2.80;;;;;;;;;;5061704;28;20203;-81
2021/12/31 05:02:22;;;;;;;6.47;2.63;;;;;;;;;;5069222;28;20203;-81
2021/12/31 05:04:49;;;;;;;7.40;2.83;;;;;;;;;;5066209;28;20207;-81
2021/12/31 05:07:16;;;;;;;10.37;2.70;;;;;;;;;;5070110;28;20198;-81
2021/12/31 05:09:43;;;;;;;11.53;2.80;;;;;;;;;;5064813;28;20301;-81
2021/12/31 05:12:15;;;;;;;10.90;2.60;;;;;;;;;;5069239;28;20934;-81
2021/12/31 05:14:45;;;;;;;5.13;2.33;;;;;;;;;;5065750;28;20236;-81
2021/12/31 05:17:12;;;;;;;6.37;2.90;;;;;;;;;;5066193;28;20230;-81
2021/12/31 05:19:43;;;;;;;8.93;3.07;;;;;;;;;;5069671;28;20218;-82
2021/12/31 05:22:10;;;;;;;8.43;2.93;;;;;;;;;;5067278;28;20293;-81
2021/12/31 05:24:37;;;;;;;9.57;2.90;;;;;;;;;;5065061;28;20211;-81
2021/12/31 05:27:05;;;;;;;8.33;2.70;;;;;;;;;;5066151;28;20203;-81
2021/12/31 05:29:32;;;;;;;10.73;2.90;;;;;;;;;;5064961;28;20229;-81
2021/12/31 05:32:01;;;;;;;8.43;2.40;;;;;;;;;;5066229;28;20203;-81
2021/12/31 05:34:28;;;;;;;3.97;2.40;;;;;;;;;;5066295;28;20195;-81
2021/12/31 05:36:55;;;;;;;7.70;2.10;;;;;;;;;;5071041;28;20294;-82
2021/12/31 05:39:22;;;;;;;6.40;2.27;;;;;;;;;;5067391;28;20226;-82
2021/12/31 05:41:49;;;;;;;7.97;2.77;;;;;;;;;;5067890;28;20297;-82
2021/12/31 05:44:16;;;;;;;8.70;2.27;;;;;;;;;;5065037;28;20212;-82
2021/12/31 05:46:47;;;;;;;8.63;2.80;;;;;;;;;;5068686;28;20792;-82
2021/12/31 05:49:16;;;;;;;9.90;2.30;;;;;;;;;;5069611;28;20218;-82
2021/12/31 05:51:43;;;;;;;6.10;2.20;;;;;;;;;;5069089;28;20229;-82
2021/12/31 05:54:11;;;;;;;6.20;2.67;;;;;;;;;;5062808;28;20295;-82
2021/12/31 05:56:38;;;;;;;6.07;3.20;;;;;;;;;;5064253;28;20235;-82
2021/12/31 05:59:05;;;;;;;8.07;2.80;;;;;;;;;;5067092;28;20313;-82
2021/12/31 06:01:32;;;;;;;10.43;4.20;;;;;;;;;;5070639;28;20210;-82
2021/12/31 06:03:59;;;;;;;10.20;3.83;;;;;;;;;;5063606;28;20222;-82
2021/12/31 06:06:28;;;;;;;8.77;3.33;;;;;;;;;;5068235;28;20293;-83
2021/12/31 06:08:55;;;;;;;8.50;2.70;;;;;;;;;;5070671;28;20316;-82
2021/12/31 06:11:22;;;;;;;6.97;2.77;;;;;;;;;;5069955;28;20267;-82
2021/12/31 06:13:59;;;;;;;6.93;3.40;;;;;;;;;;5069809;28;20658;-83
2021/12/31 06:16:27;;;;;;;5.43;3.23;;;;;;;;;;5068513;28;20211;-82
2021/12/31 06:18:54;;;;;;;11.83;3.43;;;;;;;;;;5095179;22;20599;-87
2021/12/31 06:21:22;;;;;;;7.17;3.53;;;;;;;;;;5100167;28;20210;-87
2021/12/31 06:23:50;;;;;;;6.73;2.77;;;;;;;;;;5102156;28;20224;-87
2021/12/31 06:26:18;;;;;;;5.43;2.77;;;;;;;;;;5113411;28;20193;-87
2021/12/31 06:28:45;;;;;;;5.40;3.10;;;;;;;;;;5109221;28;20639;-87
2021/12/31 06:31:12;;;;;;;8.83;3.27;;;;;;;;;;5104804;28;20204;-86
2021/12/31 06:33:39;;;;;;;9.13;3.23;;;;;;;;;;5107099;28;20267;-86
2021/12/31 06:36:07;;;;;;;13.70;3.40;;;;;;;;;;5110185;28;20602;-87
2021/12/31 06:38:34;;;;;;;6.57;2.90;;;;;;;;;;5110616;28;20225;-86
2021/12/31 06:41:03;;;;;;;7.37;2.80;;;;;;;;;;5108845;28;20213;-86
2021/12/31 06:43:30;;;;;;;5.93;2.87;;;;;;;;;;5108003;28;20785;-87
2021/12/31 06:45:57;;;;;;;6.13;2.33;;;;;;;;;;5112744;28;20205;-87
2021/12/31 06:48:25;;;;;;;14.50;2.73;;;;;;;;;;5101337;28;20596;-87
2021/12/31 06:50:52;;;;;;;4.93;2.30;;;;;;;;;;5107749;28;20207;-87
2021/12/31 06:53:20;;;;;;;5.00;2.90;;;;;;;;;;5110461;28;20212;-87
2021/12/31 06:55:47;;;;;;;7.97;3.60;;;;;;;;;;5110570;28;20201;-87
2021/12/31 06:58:16;;;;;;;10.57;2.93;;;;;;;;;;5108307;28;20315;-87
2021/12/31 07:00:43;;;;;;;10.07;2.73;;;;;;;;;;5104719;28;20213;-87
2021/12/31 07:03:12;;;;;;;6.53;2.93;;;;;;;;;;5107774;28;20202;-87
2021/12/31 07:05:41;;;;;;;10.67;4.87;;;;;;;;;;5104996;28;20221;-87
2021/12/31 07:08:09;;;;;;;8.37;4.90;;;;;;;;;;5104037;28;20573;-87
2021/12/31 07:10:36;;;;;;;7.60;4.10;;;;;;;;;;5109271;28;20204;-87
2021/12/31 07:13:05;;;;;;;8.37;4.10;;;;;;;;;;5103164;28;20201;-87
2021/12/31 07:15:34;;;;;;;11.77;4.63;;;;;;;;;;5103854;28;20669;-88
2021/12/31 07:18:01;;;;;;;14.27;4.00;;;;;;;;;;5105186;28;20675;-86
2021/12/31 07:20:29;;;;;;;8.00;4.00;;;;;;;;;;5110666;28;20211;-87
2021/12/31 07:22:56;;;;;;;8.47;4.20;;;;;;;;;;5103887;28;20222;-87
2021/12/31 07:25:23;;;;;;;10.13;4.37;;;;;;;;;;5104709;28;20213;-88
2021/12/31 07:27:53;;;;;;;10.40;4.43;;;;;;;;;;5111899;28;20197;-87
2021/12/31 07:30:21;;;;;;;9.40;3.97;;;;;;;;;;5105525;28;20216;-86
2021/12/31 07:32:50;;;;;;;8.67;4.30;;;;;;;;;;5109499;28;20220;-86
2021/12/31 07:35:17;;;;;;;12.10;5.40;;;;;;;;;;5116761;28;20286;-88
2021/12/31 07:37:44;;;;;;;10.77;4.90;;;;;;;;;;5115756;28;20220;-88
2021/12/31 07:40:13;;;;;;;10.50;4.50;;;;;;;;;;5121156;28;20204;-87
2021/12/31 07:42:40;;;;;;;9.47;4.63;;;;;;;;;;5114618;28;20206;-87
2021/12/31 07:45:08;;;;;;;7.93;4.20;;;;;;;;;;5124014;28;20254;-88
2021/12/31 07:47:36;;;;;;;16.97;5.47;;;;;;;;;;5108662;28;20646;-87
2021/12/31 07:50:07;;;;;;;12.77;4.80;;;;;;;;;;5112177;28;20277;-87
2021/12/31 07:52:34;;;;;;;17.53;7.03;;;;;;;;;;5100015;28;20197;-87
2021/12/31 07:55:02;;;;;;;13.60;6.27;;;;;;;;;;5095446;28;20635;-87
2021/12/31 07:57:29;;;;;;;17.60;7.07;;;;;;;;;;5109252;28;20214;-86
2021/12/31 07:59:57;;;;;;;17.87;9.20;;;;;;;;;;5110525;28;20197;-87
2021/12/31 08:02:25;;;;;;;13.83;6.93;;;;;;;;;;5109389;28;20220;-83
2021/12/31 08:04:52;;;;;;;15.40;7.90;;;;;;;;;;5107057;28;20221;-84
2021/12/31 08:07:21;;;;;;;24.37;11.10;;;;;;;;;;5107231;28;20284;-82
2021/12/31 08:09:48;;;;;;;17.57;7.53;;;;;;;;;;5101326;28;20641;-82
2021/12/31 08:12:15;;;;;;;14.53;6.93;;;;;;;;;;5109007;28;20201;-83
2021/12/31 08:14:43;;;;;;;18.57;8.13;;;;;;;;;;5113993;22;20271;-81
2021/12/31 08:17:10;;;;;;;25.57;8.37;;;;;;;;;;5099237;28;20198;-82
2021/12/31 08:19:37;;;;;;;21.03;9.77;;;;;;;;;;5094344;28;20949;-82
2021/12/31 08:22:04;;;;;;;13.50;7.70;;;;;;;;;;5095945;28;20205;-81
2021/12/31 08:24:33;;;;;;;14.13;6.53;;;;;;;;;;5093207;28;20197;-81
2021/12/31 08:27:00;;;;;;;20.63;7.40;;;;;;;;;;5094143;28;20206;-81
2021/12/31 08:29:27;;;;;;;13.40;7.93;;;;;;;;;;5093857;28;20213;-81
2021/12/31 08:31:54;;;;;;;12.97;8.13;;;;;;;;;;5093143;28;20202;-82
2021/12/31 08:34:21;;;;;;;14.50;6.47;;;;;;;;;;5092993;28;20296;-81
2021/12/31 08:36:49;;;;;;;12.37;5.90;;;;;;;;;;5094662;28;20205;-80
2021/12/31 08:39:16;;;;;;;21.97;7.00;;;;;;;;;;5094589;28;20304;-81
2021/12/31 08:41:44;;;;;;;9.77;5.30;;;;;;;;;;5092048;28;20718;-81
2021/12/31 08:44:11;;;;;;;14.80;4.40;;;;;;;;;;5093431;28;20617;-81
2021/12/31 08:46:40;;;;;;;8.13;4.43;;;;;;;;;;5091599;28;20193;-81
2021/12/31 08:49:07;;;;;;;14.70;5.07;;;;;;;;;;5092513;28;20250;-80
2021/12/31 08:51:35;;;;;;;6.83;4.30;;;;;;;;;;5092950;28;20296;-80
2021/12/31 08:54:02;;;;;;;10.67;4.00;;;;;;;;;;5091785;28;20213;-81
2021/12/31 08:56:29;;;;;;;8.73;3.67;;;;;;;;;;5091015;28;20324;-80
2021/12/31 08:58:57;;;;;;;8.50;4.57;;;;;;;;;;5093090;28;20309;-80
2021/12/31 09:01:25;;;;;;;7.50;3.33;;;;;;;;;;5092688;28;20337;-80
2021/12/31 09:03:52;;;;;;;10.33;2.90;;;;;;;;;;5096073;28;20296;-80
2021/12/31 09:06:20;;;;;;;8.20;3.10;;;;;;;;;;5094985;28;20204;-81
2021/12/31 09:08:47;;;;;;;4.83;2.43;;;;;;;;;;5092836;28;20249;-80
2021/12/31 09:11:14;;;;;;;5.03;2.37;;;;;;;;;;5091263;28;20209;-81
2021/12/31 09:13:42;;;;;;;6.03;3.23;;;;;;;;;;5097325;28;20232;-82
2021/12/31 09:16:11;;;;;;;5.17;3.00;;;;;;;;;;5096237;28;20201;-81
2021/12/31 09:18:38;;;;;;;6.07;2.20;;;;;;;;;;5095767;28;20320;-82
2021/12/31 09:21:06;;;;;;;5.50;2.30;;;;;;;;;;5088891;28;20193;-83
2021/12/31 09:23:33;;;;;;;6.93;2.20;;;;;;;;;;5082870;28;20293;-82
2021/12/31 09:26:01;;;;;;;4.40;1.80;;;;;;;;;;5087730;28;20198;-82
2021/12/31 09:28:28;;;;;;;6.10;2.17;;;;;;;;;;5090003;28;20219;-82
2021/12/31 09:31:00;;;;;;;4.80;2.00;;;;;;;;;;5087506;28;20683;-82
2021/12/31 09:33:29;;;;;;;6.40;2.20;;;;;;;;;;5087804;28;20240;-84
2021/12/31 09:35:57;;;;;;;6.33;2.03;;;;;;;;;;5551486;22;20204;-82
2021/12/31 09:38:24;;;;;;;2.40;1.70;;;;;;;;;;5078083;28;20222;-82
2021/12/31 09:40:51;;;;;;;4.10;1.87;;;;;;;;;;5096868;22;20231;-80
2021/12/31 09:43:19;;;;;;;4.97;1.60;;;;;;;;;;5101334;28;20343;-81
2021/12/31 09:45:49;;;;;;;2.80;1.30;;;;;;;;;;5101938;28;20211;-80
2021/12/31 09:48:17;;;;;;;4.63;1.60;;;;;;;;;;5088515;28;20205;-81
2021/12/31 09:50:47;;;;;;;4.03;1.50;;;;;;;;;;5086807;28;20206;-83
2021/12/31 09:53:15;;;;;;;3.07;1.30;;;;;;;;;;5086259;28;20209;-82
2021/12/31 09:55:44;;;;;;;2.73;1.30;;;;;;;;;;5089070;28;20328;-82
2021/12/31 09:58:16;;;;;;;4.67;1.77;;;;;;;;;;5091250;28;20225;-82
2021/12/31 10:00:46;;;;;;;2.57;1.30;;;;;;;;;;5103671;28;20237;-84
2021/12/31 10:03:17;;;;;;;3.03;1.63;;;;;;;;;;5106100;28;20346;-83
2021/12/31 10:05:45;;;;;;;4.10;1.30;;;;;;;;;;5098080;28;20212;-83
2021/12/31 10:08:20;;;;;;;2.57;1.33;;;;;;;;;;5092116;28;20669;-82
2021/12/31 10:11:04;;;;;;;5.77;1.20;;;;;;;;;;5065807;22;20680;-82
2021/12/31 10:13:32;;;;;;;1.63;0.97;;;;;;;;;;5058900;28;20284;-83
2021/12/31 10:16:00;;;;;;;5.97;1.50;;;;;;;;;;5073360;28;20234;-82
2021/12/31 10:18:31;;;;;;;4.67;1.70;;;;;;;;;;5076680;28;20223;-81
2021/12/31 10:20:59;;;;;;;2.83;1.60;;;;;;;;;;5071603;28;20234;-84
2021/12/31 10:23:27;;;;;;;4.63;1.50;;;;;;;;;;5072043;28;20210;-82
2021/12/31 10:26:07;;;;;;;2.93;1.40;;;;;;;;;;5073267;28;20194;-82
2021/12/31 10:28:35;;;;;;;3.00;1.10;;;;;;;;;;5069320;28;20927;-83
2021/12/31 10:31:12;;;;;;;6.13;1.20;;;;;;;;;;5072076;28;20224;-83
2021/12/31 10:33:44;;;;;;;7.60;1.07;;;;;;;;;;5067410;28;20275;-83
2021/12/31 10:36:31;;;;;;;3.20;1.27;;;;;;;;;;5074355;28;20219;-82
2021/12/31 10:39:03;;;;;;;1.37;1.10;;;;;;;;;;5072334;28;20657;-82
2021/12/31 10:41:32;;;;;;;2.60;1.30;;;;;;;;;;5072946;28;20206;-82
2021/12/31 10:44:00;;;;;;;2.20;1.20;;;;;;;;;;5065094;28;20260;-82
2021/12/31 10:46:27;;;;;;;4.30;1.23;;;;;;;;;;5068936;28;20242;-82
2021/12/31 10:48:55;;;;;;;5.13;1.30;;;;;;;;;;5069062;28;20199;-84
2021/12/31 10:51:39;;;;;;;5.33;1.50;;;;;;;;;;5078995;28;20207;-83
2021/12/31 10:54:28;;;;;;;2.60;1.00;;;;;;;;;;5067042;28;20658;-81
2021/12/31 10:56:55;;;;;;;2.60;1.23;;;;;;;;;;5069992;28;20222;-83
2021/12/31 10:59:23;;;;;;;4.33;1.20;;;;;;;;;;5069297;28;20613;-81
2021/12/31 11:01:50;;;;;;;1.87;1.20;;;;;;;;;;5073757;28;20218;-81
2021/12/31 11:04:20;;;;;;;1.80;1.10;;;;;;;;;;5078040;28;20581;-82
2021/12/31 11:06:48;;;;;;;3.53;1.20;;;;;;;;;;5075267;28;20745;-83
2021/12/31 11:09:21;;;;;;;1.80;1.10;;;;;;;;;;5078434;28;20289;-84
2021/12/31 11:11:50;;;;;;;2.03;1.07;;;;;;;;;;5083831;28;20197;-84
2021/12/31 11:14:18;;;;;;;3.20;1.20;;;;;;;;;;5088359;28;20217;-86
2021/12/31 11:16:45;;;;;;;4.80;1.20;;;;;;;;;;5089362;28;20612;-83
2021/12/31 11:19:13;;;;;;;8.37;1.10;;;;;;;;;;5088604;28;20699;-84
2021/12/31 11:21:41;;;;;;;3.23;1.27;;;;;;;;;;5083479;28;20229;-81
2021/12/31 11:24:27;;;;;;;4.20;1.53;;;;;;;;;;5080394;28;20202;-83
2021/12/31 11:26:56;;;;;;;3.43;1.20;;;;;;;;;;5097978;22;20646;-84
2021/12/31 11:29:24;;;;;;;4.70;1.20;;;;;;;;;;5098658;28;20664;-86
2021/12/31 11:31:51;;;;;;;2.00;1.13;;;;;;;;;;5084671;28;20313;-82
2021/12/31 11:34:26;;;;;;;2.83;1.10;;;;;;;;;;5068927;28;20264;-85
2021/12/31 11:36:54;;;;;;;0.97;0.83;;;;;;;;;;5068281;28;20202;-83
2021/12/31 11:39:29;;;;;;;3.93;1.17;;;;;;;;;;5069620;28;20280;-82
2021/12/31 11:41:59;;;;;;;2.73;1.10;;;;;;;;;;5074533;28;20243;-82
2021/12/31 11:44:27;;;;;;;3.73;1.17;;;;;;;;;;5071995;28;20233;-82
2021/12/31 11:47:08;;;;;;;1.43;0.80;;;;;;;;;;5077362;28;20650;-82
2021/12/31 11:49:36;;;;;;;2.23;1.30;;;;;;;;;;5068627;28;20214;-82
2021/12/31 11:52:06;;;;;;;3.37;1.00;;;;;;;;;;5072782;28;20599;-82
2021/12/31 11:54:40;;;;;;;2.70;1.10;;;;;;;;;;5072760;28;20301;-82
2021/12/31 11:57:13;;;;;;;9.13;1.20;;;;;;;;;;5071932;28;20209;-83
2021/12/31 11:59:59;;;;;;;3.17;1.30;;;;;;;;;;5069666;28;20249;-82
2021/12/31 12:02:38;;;;;;;2.60;0.97;;;;;;;;;;5072332;28;20252;-81
2021/12/31 12:05:11;;;;;;;4.40;1.40;;;;;;;;;;5073538;28;20211;-82
2021/12/31 12:07:46;;;;;;;2.07;1.20;;;;;;;;;;5072278;28;20206;-82
2021/12/31 12:10:21;;;;;;;1.73;0.80;;;;;;;;;;5075681;28;20591;-82
2021/12/31 12:12:51;;;;;;;3.03;1.20;;;;;;;;;;5070415;28;20284;-84
2021/12/31 12:15:30;;;;;;;1.87;1.00;;;;;;;;;;5072821;28;20586;-84
2021/12/31 12:17:59;;;;;;;3.60;1.10;;;;;;;;;;5071667;28;20596;-82
2021/12/31 12:20:36;;;;;;;3.60;1.03;;;;;;;;;;5071569;28;20239;-83
2021/12/31 12:23:12;;;;;;;2.47;0.77;;;;;;;;;;5068165;28;20222;-83
2021/12/31 12:25:40;;;;;;;1.60;0.90;;;;;;;;;;5069775;28;20198;-81
2021/12/31 12:28:15;;;;;;;1.60;0.70;;;;;;;;;;5072101;28;20241;-82
2021/12/31 12:30:47;;;;;;;4.07;1.10;;;;;;;;;;5076012;28;20236;-83
2021/12/31 12:33:18;;;;;;;3.80;1.43;;;;;;;;;;5073505;28;20373;-82
2021/12/31 12:35:46;;;;;;;3.23;1.20;;;;;;;;;;5076788;28;20203;-79
2021/12/31 12:38:17;;;;;;;2.13;1.00;;;;;;;;;;5075944;28;20568;-80
2021/12/31 12:40:46;;;;;;;2.40;1.13;;;;;;;;;;5076619;28;20241;-82
2021/12/31 12:43:16;;;;;;;1.60;1.07;;;;;;;;;;5079926;28;20256;-80
2021/12/31 12:45:46;;;;;;;3.00;1.23;;;;;;;;;;5077976;28;20238;-81
2021/12/31 12:48:13;;;;;;;2.37;1.10;;;;;;;;;;5082541;28;20222;-80
2021/12/31 12:50:51;;;;;;;3.47;1.80;;;;;;;;;;5078725;28;20258;-84
2021/12/31 12:53:22;;;;;;;3.73;1.90;;;;;;;;;;5083080;28;20254;-83
2021/12/31 12:55:49;;;;;;;4.40;1.70;;;;;;;;;;5077262;28;20210;-83
2021/12/31 12:58:26;;;;;;;2.00;1.10;;;;;;;;;;5073949;28;20266;-83
2021/12/31 13:00:56;;;;;;;5.00;1.80;;;;;;;;;;5074193;28;20252;-86
2021/12/31 13:03:25;;;;;;;2.27;1.20;;;;;;;;;;5075297;28;20305;-83
2021/12/31 13:06:03;;;;;;;5.40;1.90;;;;;;;;;;5073739;28;20209;-82
2021/12/31 13:08:31;;;;;;;7.90;4.90;;;;;;;;;;5077828;28;20213;-82
2021/12/31 13:10:58;;;;;;;5.33;2.93;;;;;;;;;;5078013;28;20213;-82
2021/12/31 13:13:26;;;;;;;4.47;2.57;;;;;;;;;;5074701;28;20265;-84
2021/12/31 13:15:54;;;;;;;7.00;2.80;;;;;;;;;;5074946;28;20226;-83
2021/12/31 13:18:25;;;;;;;5.13;1.90;;;;;;;;;;5066296;28;20202;-83
2021/12/31 13:20:59;;;;;;;6.77;3.40;;;;;;;;;;5069315;28;20222;-81
2021/12/31 13:23:26;;;;;;;3.47;1.40;;;;;;;;;;5072486;28;20215;-83
2021/12/31 13:25:53;;;;;;;4.37;1.50;;;;;;;;;;5067968;28;20207;-81
2021/12/31 13:28:22;;;;;;;4.70;1.70;;;;;;;;;;5068196;28;20207;-80
2021/12/31 13:30:57;;;;;;;4.17;1.83;;;;;;;;;;5068561;28;20207;-82
2021/12/31 13:33:26;;;;;;;3.07;1.43;;;;;;;;;;5071123;28;20291;-81
2021/12/31 13:36:12;;;;;;;6.17;2.03;;;;;;;;;;5069012;28;20408;-79
2021/12/31 13:39:13;;;;;;;3.33;1.30;;;;;;;;;;5065851;28;20281;-79
2021/12/31 13:41:51;;;;;;;6.57;1.70;;;;;;;;;;5009373;28;20228;-82
2021/12/31 13:44:20;;;;;;;4.77;2.70;;;;;;;;;;4999614;28;20651;-81
2021/12/31 13:46:49;;;;;;;3.33;1.67;;;;;;;;;;5037730;28;20285;-82
2021/12/31 13:49:19;;;;;;;1.83;1.30;;;;;;;;;;5067225;28;20357;-81
2021/12/31 13:51:46;;;;;;;2.23;1.33;;;;;;;;;;5073852;28;20250;-81
2021/12/31 13:54:16;;;;;;;3.20;1.27;;;;;;;;;;5080206;28;20210;-81
2021/12/31 13:56:44;;;;;;;4.43;1.30;;;;;;;;;;5073226;28;20206;-81
2021/12/31 13:59:25;;;;;;;2.27;1.30;;;;;;;;;;5075245;28;20203;-81
2021/12/31 14:02:14;;;;;;;6.43;2.50;;;;;;;;;;5074349;28;20241;-81
2021/12/31 14:05:01;;;;;;;6.43;2.90;;;;;;;;;;5075151;28;20591;-81
2021/12/31 14:07:33;;;;;;;6.73;2.80;;;;;;;;;;5066655;28;20234;-82
2021/12/31 14:10:00;;;;;;;5.23;2.13;;;;;;;;;;5074325;28;20234;-81
2021/12/31 14:12:28;;;;;;;6.27;1.90;;;;;;;;;;5074424;28;20218;-83
2021/12/31 14:14:55;;;;;;;2.93;1.80;;;;;;;;;;5075652;28;20198;-82
2021/12/31 14:17:24;;;;;;;3.80;2.17;;;;;;;;;;5078513;28;20293;-82
2021/12/31 14:19:53;;;;;;;5.23;2.40;;;;;;;;;;5071063;28;20699;-82
2021/12/31 14:22:20;;;;;;;7.27;2.40;;;;;;;;;;5081450;28;20221;-83
2021/12/31 14:24:47;;;;;;;7.13;3.40;;;;;;;;;;5075025;28;20679;-83
2021/12/31 14:27:14;;;;;;;8.27;4.00;;;;;;;;;;5069210;28;20586;-82
2021/12/31 14:29:42;;;;;;;11.20;6.13;;;;;;;;;;5074175;28;20270;-82
2021/12/31 14:32:10;;;;;;;16.57;6.90;;;;;;;;;;5066352;28;20264;-82
2021/12/31 14:34:38;;;;;;;11.60;4.97;;;;;;;;;;5063483;28;20233;-82
2021/12/31 14:37:08;;;;;;;5.93;3.40;;;;;;;;;;5073453;28;20241;-83
2021/12/31 14:39:38;;;;;;;6.07;3.53;;;;;;;;;;5070260;28;20229;-82
2021/12/31 14:42:06;;;;;;;7.40;3.97;;;;;;;;;;5069457;28;20715;-83
2021/12/31 14:44:34;;;;;;;17.77;7.17;;;;;;;;;;5071493;28;20289;-82
2021/12/31 14:47:02;;;;;;;12.00;8.70;;;;;;;;;;5081021;28;20274;-83
2021/12/31 14:49:31;;;;;;;11.43;7.10;;;;;;;;;;5079150;28;20301;-83
2021/12/31 14:51:59;;;;;;;17.30;8.30;;;;;;;;;;5077334;28;20237;-82